createdAt,value
2018-12-02T00:00:24.692Z,134.50
2018-12-02T00:05:19.320Z,122.80
2018-12-02T00:10:30.781Z,121.13
2018-12-02T00:15:30.005Z,116.10
2018-12-02T00:20:24.596Z,107.60
2018-12-02T00:25:19.174Z,108.57
2018-12-02T00:30:16.933Z,110.30
2018-12-02T00:35:13.491Z,116.50
2018-12-02T00:40:12.936Z,124.60
2018-12-02T00:45:10.908Z,113.47
2018-12-02T00:50:07.805Z,115.10
2018-12-02T00:55:02.383Z,117.70
2018-12-02T00:59:56.960Z,108.57
2018-12-02T01:04:51.554Z,110.90
2018-12-02T01:09:46.085Z,110.13
2018-12-02T01:14:40.680Z,104.00
2018-12-02T01:19:35.214Z,115.77
2018-12-02T01:24:29.764Z,109.20
2018-12-02T01:29:24.292Z,106.03
2018-12-02T01:34:18.857Z,142.40
2018-12-02T01:39:13.456Z,122.43
2018-12-02T01:44:08.029Z,121.57
2018-12-02T01:49:02.584Z,124.00
2018-12-02T01:53:57.149Z,123.10
2018-12-02T01:58:51.709Z,116.17
2018-12-02T02:03:46.320Z,126.67
2018-12-02T02:08:41.016Z,111.83
2018-12-02T02:13:35.550Z,113.43
2018-12-02T02:18:30.065Z,114.97
2018-12-02T02:23:24.629Z,117.10
2018-12-02T02:28:19.247Z,115.90
2018-12-02T02:33:13.806Z,111.23
2018-12-02T02:38:08.385Z,121.57
2018-12-02T02:43:02.932Z,119.30
2018-12-02T02:47:57.496Z,109.90
2018-12-02T02:52:57.338Z,127.70
2018-12-02T02:57:51.978Z,121.23
2018-12-02T03:02:46.508Z,117.50
2018-12-02T03:07:41.071Z,126.03
2018-12-02T03:12:35.616Z,135.90
2018-12-02T03:17:30.174Z,140.97
2018-12-02T03:22:24.766Z,141.40
2018-12-02T03:27:19.317Z,141.87
2018-12-02T03:32:13.857Z,133.03
2018-12-02T03:37:08.420Z,101.00
2018-12-02T03:42:03.013Z,103.30
2018-12-02T03:46:57.584Z,100.10
2018-12-02T03:51:52.181Z,107.70
2018-12-02T03:56:47.672Z,110.57
2018-12-02T04:01:42.220Z,98.83
2018-12-02T04:06:36.785Z,88.27
2018-12-02T04:11:31.363Z,110.73
2018-12-02T04:16:25.967Z,108.00
2018-12-02T04:21:20.548Z,111.83
2018-12-02T04:26:15.383Z,120.40
2018-12-02T04:31:09.953Z,119.03
2018-12-02T04:36:04.556Z,122.53
2018-12-02T04:40:59.137Z,107.83
2018-12-02T04:45:53.677Z,89.17
2018-12-02T04:50:48.225Z,87.37
2018-12-02T04:55:42.741Z,90.27
2018-12-02T05:00:37.306Z,81.60
2018-12-02T05:05:31.829Z,80.57
2018-12-02T05:10:26.393Z,89.90
2018-12-02T05:15:21.584Z,76.17
2018-12-02T05:20:19.886Z,77.67
2018-12-02T05:25:17.850Z,72.63
2018-12-02T05:30:13.263Z,68.33
2018-12-02T05:35:08.640Z,74.00
2018-12-02T05:40:03.398Z,67.40
2018-12-02T05:44:57.916Z,63.90
2018-12-02T05:49:52.498Z,60.23
2018-12-02T05:54:47.028Z,58.10
2018-12-02T05:59:41.604Z,73.83
2018-12-02T06:04:36.145Z,68.30
2018-12-02T06:09:30.669Z,69.73
2018-12-02T06:14:25.200Z,65.27
2018-12-02T06:19:19.860Z,69.97
2018-12-02T06:24:14.443Z,80.87
2018-12-02T06:29:08.996Z,76.60
2018-12-02T06:34:03.868Z,85.00
2018-12-02T06:38:58.454Z,84.07
2018-12-02T06:43:53.201Z,84.47
2018-12-02T06:48:47.843Z,82.43
2018-12-02T06:53:42.369Z,92.87
2018-12-02T06:58:44.801Z,98.23
2018-12-02T07:03:43.136Z,89.57
2018-12-02T07:08:37.732Z,91.57
2018-12-02T07:13:32.284Z,84.60
2018-12-02T07:18:28.024Z,110.13
2018-12-02T07:23:22.582Z,108.43
2018-12-02T07:28:17.217Z,94.63
2018-12-02T07:33:12.706Z,87.20
2018-12-02T07:38:36.413Z,99.63
2018-12-02T07:43:47.627Z,95.80
2018-12-02T07:48:42.313Z,90.57
2018-12-02T07:53:36.841Z,87.97
2018-12-02T07:58:31.676Z,80.20
2018-12-02T08:03:26.238Z,73.20
2018-12-02T08:08:20.817Z,72.57
2018-12-02T08:13:15.384Z,83.73
2018-12-02T08:18:10.061Z,67.90
2018-12-02T08:23:04.662Z,59.23
2018-12-02T08:27:59.265Z,67.80
2018-12-02T08:32:54.246Z,57.20
2018-12-02T08:37:50.218Z,61.93
2018-12-02T08:42:44.793Z,79.37
2018-12-02T08:47:39.457Z,65.63
2018-12-02T08:52:34.021Z,64.80
2018-12-02T08:57:28.609Z,76.17
2018-12-02T09:02:23.226Z,70.63
2018-12-02T09:07:17.761Z,64.67
2018-12-02T09:12:12.321Z,61.40
2018-12-02T09:17:07.010Z,65.30
2018-12-02T09:22:01.617Z,64.10
2018-12-02T09:26:56.232Z,64.67
2018-12-02T09:31:51.678Z,61.20
2018-12-02T09:36:46.237Z,68.00
2018-12-02T09:41:40.797Z,68.00
2018-12-02T09:46:35.491Z,57.50
2018-12-02T09:51:30.058Z,63.67
2018-12-02T09:56:24.630Z,59.70
2018-12-02T10:01:20.198Z,68.73
2018-12-02T10:06:14.742Z,67.83
2018-12-02T10:11:09.325Z,64.13
2018-12-02T10:16:03.923Z,57.63
2018-12-02T10:20:58.887Z,53.07
2018-12-02T10:25:53.470Z,60.83
2018-12-02T10:30:48.148Z,59.77
2018-12-02T10:35:42.694Z,52.60
2018-12-02T10:40:37.873Z,57.03
2018-12-02T10:45:32.433Z,62.73
2018-12-02T10:50:31.070Z,57.30
2018-12-02T10:56:01.925Z,57.10
2018-12-02T11:01:02.669Z,56.03
2018-12-02T11:05:57.217Z,61.43
2018-12-02T11:10:51.867Z,54.30
2018-12-02T11:15:46.462Z,57.47
2018-12-02T11:20:41.042Z,57.87
2018-12-02T11:25:35.757Z,61.80
2018-12-02T11:30:30.313Z,58.03
2018-12-02T11:35:24.928Z,61.27
2018-12-02T11:40:20.538Z,57.77
2018-12-02T11:45:15.716Z,58.57
2018-12-02T11:50:20.557Z,59.57
2018-12-02T11:55:16.094Z,71.23
2018-12-02T12:00:28.730Z,62.60
2018-12-02T12:05:23.338Z,77.17
2018-12-02T12:10:19.788Z,62.40
2018-12-02T12:15:15.509Z,60.53
2018-12-02T12:20:18.321Z,58.23
2018-12-02T12:25:12.913Z,69.30
2018-12-02T12:30:23.804Z,68.93
2018-12-02T12:35:19.138Z,66.97
2018-12-02T12:40:18.682Z,64.10
2018-12-02T12:45:14.176Z,70.33
2018-12-02T12:50:11.974Z,71.00
2018-12-02T12:55:08.357Z,70.83
2018-12-02T13:00:02.945Z,74.07
2018-12-02T13:04:57.537Z,72.40
2018-12-02T13:09:52.129Z,76.57
2018-12-02T13:14:46.784Z,70.93
2018-12-02T13:19:41.368Z,69.30
2018-12-02T13:24:35.909Z,70.67
2018-12-02T13:29:30.436Z,70.80
2018-12-02T13:34:24.965Z,70.30
2018-12-02T13:39:19.634Z,68.43
2018-12-02T13:44:14.368Z,70.60
2018-12-02T13:49:10.061Z,72.37
2018-12-02T13:54:09.857Z,72.53
2018-12-02T13:59:04.577Z,65.57
2018-12-02T14:03:59.126Z,71.30
2018-12-02T14:08:53.937Z,73.63
2018-12-02T14:13:48.538Z,69.63
2018-12-02T14:18:44.216Z,71.70
2018-12-02T14:23:40.459Z,76.23
2018-12-02T14:28:46.797Z,67.37
2018-12-02T14:33:41.457Z,67.83
2018-12-02T14:38:36.025Z,64.47
2018-12-02T14:43:30.669Z,74.60
2018-12-02T14:48:25.261Z,67.20
2018-12-02T14:53:19.954Z,66.60
2018-12-02T14:58:15.014Z,63.70
2018-12-02T15:03:09.670Z,64.03
2018-12-02T15:08:04.317Z,66.03
2018-12-02T15:12:58.981Z,70.73
2018-12-02T15:17:53.760Z,70.90
2018-12-02T15:22:48.408Z,73.30
2018-12-02T15:27:43.797Z,86.80
2018-12-02T15:32:38.394Z,76.33
2018-12-02T15:37:32.942Z,73.70
2018-12-02T15:42:27.525Z,73.03
2018-12-02T15:47:22.076Z,70.93
2018-12-02T15:52:17.359Z,69.33
2018-12-02T15:57:11.281Z,65.67
2018-12-02T16:02:06.330Z,73.33
2018-12-02T16:07:00.994Z,70.87
2018-12-02T16:11:55.686Z,74.47
2018-12-02T16:16:50.277Z,79.07
2018-12-02T16:21:44.826Z,78.33
2018-12-02T16:26:39.520Z,76.00
2018-12-02T16:31:34.067Z,73.33
2018-12-02T16:36:28.694Z,69.97
2018-12-02T16:41:23.269Z,78.10
2018-12-02T16:46:17.873Z,74.93
2018-12-02T16:51:13.195Z,80.37
2018-12-02T16:56:16.705Z,77.40
2018-12-02T17:01:15.986Z,79.73
2018-12-02T17:06:10.606Z,78.10
2018-12-02T17:11:05.245Z,83.77
2018-12-02T17:15:59.849Z,78.03
2018-12-02T17:21:04.788Z,89.57
2018-12-02T17:26:00.082Z,83.07
2018-12-02T17:31:28.230Z,79.50
2018-12-02T17:36:23.018Z,80.37
2018-12-02T17:41:18.447Z,77.30
2018-12-02T17:46:13.008Z,77.73
2018-12-02T17:51:08.813Z,73.97
2018-12-02T17:56:03.417Z,79.03
2018-12-02T18:00:58.009Z,83.63
2018-12-02T18:05:52.598Z,81.03
2018-12-02T18:10:47.269Z,78.23
2018-12-02T18:15:41.907Z,74.57
2018-12-02T18:20:36.541Z,78.00
2018-12-02T18:25:31.217Z,74.17
2018-12-02T18:30:26.842Z,86.97
2018-12-02T18:35:44.121Z,81.80
2018-12-02T18:40:40.114Z,109.03
2018-12-02T18:45:34.752Z,95.73
2018-12-02T18:50:29.342Z,90.23
2018-12-02T18:55:23.893Z,89.43
2018-12-02T19:00:23.692Z,91.70
2018-12-02T19:05:18.305Z,86.73
2018-12-02T19:10:14.734Z,95.50
2018-12-02T19:15:15.313Z,88.60
2018-12-02T19:20:14.913Z,91.07
2018-12-02T19:25:11.497Z,91.67
2018-12-02T19:30:10.236Z,90.37
2018-12-02T19:35:06.486Z,82.87
2018-12-02T19:40:04.512Z,82.73
2018-12-02T19:44:59.061Z,80.73
2018-12-02T19:49:53.674Z,77.97
2018-12-02T19:54:48.245Z,83.87
2018-12-02T19:59:42.894Z,78.17
2018-12-02T20:04:37.527Z,85.73
2018-12-02T20:09:32.226Z,82.80
2018-12-02T20:14:26.927Z,87.50
2018-12-02T20:19:26.733Z,93.23
2018-12-02T20:24:26.618Z,107.47
2018-12-02T20:29:21.221Z,88.37
2018-12-02T20:34:15.761Z,91.10
2018-12-02T20:39:11.658Z,87.43
2018-12-02T20:44:06.567Z,85.67
2018-12-02T20:49:01.173Z,87.23
2018-12-02T20:53:57.036Z,83.50
2018-12-02T20:58:51.713Z,81.57
2018-12-02T21:03:47.713Z,87.53
2018-12-02T21:08:42.387Z,83.17
2018-12-02T21:13:36.937Z,99.37
2018-12-02T21:18:31.506Z,97.67
2018-12-02T21:23:26.056Z,94.43
2018-12-02T21:28:23.242Z,92.37
2018-12-02T21:33:17.791Z,99.47
2018-12-02T21:38:12.373Z,95.53
2018-12-02T21:43:07.162Z,94.37
2018-12-02T21:48:01.686Z,103.40
2018-12-02T21:52:56.881Z,87.70
2018-12-02T21:57:51.441Z,92.30
2018-12-02T22:02:46.436Z,89.23
2018-12-02T22:07:41.064Z,88.93
2018-12-02T22:12:36.089Z,89.47
2018-12-02T22:17:30.785Z,75.50
2018-12-02T22:22:36.306Z,82.87
2018-12-02T22:27:32.265Z,76.60
2018-12-02T22:32:26.865Z,78.03
2018-12-02T22:37:21.385Z,78.67
2018-12-02T22:42:15.905Z,78.47
2018-12-02T22:47:10.429Z,85.23
2018-12-02T22:52:05.312Z,78.63
2018-12-02T22:56:59.883Z,69.33
2018-12-02T23:01:59.636Z,71.27
2018-12-02T23:06:54.172Z,84.23
2018-12-02T23:11:48.705Z,75.43
2018-12-02T23:16:53.106Z,73.57
2018-12-02T23:21:47.620Z,71.13
2018-12-02T23:26:42.178Z,67.13
2018-12-02T23:31:36.749Z,68.73
2018-12-02T23:36:31.294Z,63.03
2018-12-02T23:41:25.833Z,67.53
2018-12-02T23:46:20.421Z,64.77
2018-12-02T23:51:14.956Z,69.23
2018-12-02T23:56:09.495Z,70.67
